Time;durP1;ratioP1;P1;durP2;ratioP2;P2;SDS_P1;SDS_P2;PMS_P1;PMS_P2;Temp;Humidity;BMP_temperature;BMP_pressure;BME280_temperature;BME280_humidity;BME280_pressure;Samples;Min_cycle;Max_cycle;Signal;HPM_P1;HPM_P2
2021/09/20 00:00:26;;;;;;;20.47;18.60;;;12.20;99.90;;;;;;4985650;28;20459;-71
2021/09/20 00:02:55;;;;;;;20.50;18.80;;;12.00;99.90;;;;;;4982707;28;20465;-71
2021/09/20 00:05:23;;;;;;;19.73;18.33;;;12.00;99.90;;;;;;4984732;28;20512;-72
2021/09/20 00:07:50;;;;;;;20.67;19.17;;;12.00;99.90;;;;;;4987629;28;20470;-70
2021/09/20 00:10:17;;;;;;;21.30;19.60;;;12.00;99.90;;;;;;4985202;28;21006;-71
2021/09/20 00:12:44;;;;;;;20.63;19.03;;;11.90;99.90;;;;;;4988515;28;20986;-72
2021/09/20 00:15:13;;;;;;;21.33;19.53;;;11.90;99.90;;;;;;4987621;28;20465;-71
2021/09/20 00:17:41;;;;;;;19.73;18.10;;;11.90;99.90;;;;;;4986879;28;20455;-71
2021/09/20 00:20:13;;;;;;;20.70;19.17;;;11.80;99.90;;;;;;4986902;28;20462;-71
2021/09/20 00:22:40;;;;;;;21.20;19.23;;;11.80;99.90;;;;;;4983980;28;20467;-72
2021/09/20 00:25:11;;;;;;;22.00;19.97;;;11.70;99.90;;;;;;4987077;28;20474;-72
2021/09/20 00:27:39;;;;;;;21.43;19.83;;;11.70;99.90;;;;;;4989282;28;20447;-73
2021/09/20 00:30:08;;;;;;;21.50;19.70;;;11.70;99.90;;;;;;4981856;28;20464;-72
2021/09/20 00:32:35;;;;;;;21.87;20.10;;;11.70;99.90;;;;;;4984498;28;20975;-72
2021/09/20 00:35:03;;;;;;;21.97;19.70;;;11.70;99.90;;;;;;4988391;28;20491;-73
2021/09/20 00:37:34;;;;;;;21.07;19.47;;;11.60;99.90;;;;;;4981831;28;20453;-71
2021/09/20 00:40:03;;;;;;;22.50;20.73;;;11.50;99.90;;;;;;4981535;28;21259;-72
2021/09/20 00:42:30;;;;;;;22.43;20.10;;;11.50;99.90;;;;;;4988200;28;20509;-72
2021/09/20 00:44:58;;;;;;;21.97;20.20;;;11.40;99.90;;;;;;4990132;28;20491;-73
2021/09/20 00:47:25;;;;;;;23.07;21.27;;;11.40;99.90;;;;;;4995603;28;20468;-73
2021/09/20 00:49:52;;;;;;;21.93;20.37;;;11.30;99.90;;;;;;4988718;28;20460;-71
2021/09/20 00:52:20;;;;;;;21.93;20.13;;;11.30;99.90;;;;;;4995060;28;20505;-73
2021/09/20 00:54:50;;;;;;;22.90;21.20;;;11.20;99.90;;;;;;4990170;28;20848;-73
2021/09/20 00:57:18;;;;;;;23.87;22.00;;;11.20;99.90;;;;;;4979344;28;20564;-73
2021/09/20 00:59:45;;;;;;;22.27;20.67;;;11.10;99.90;;;;;;4981772;28;20946;-72
2021/09/20 01:02:13;;;;;;;21.60;19.90;;;11.20;99.90;;;;;;4980517;28;20466;-71
2021/09/20 01:04:41;;;;;;;23.00;21.00;;;11.30;99.90;;;;;;4992401;28;21118;-71
2021/09/20 01:07:09;;;;;;;22.23;20.43;;;11.30;99.90;;;;;;4989275;28;20545;-73
2021/09/20 01:09:40;;;;;;;22.00;20.40;;;11.30;99.90;;;;;;4988716;28;20470;-73
2021/09/20 01:12:10;;;;;;;23.30;21.27;;;11.20;99.90;;;;;;4982265;28;20505;-73
2021/09/20 01:14:38;;;;;;;23.53;21.70;;;11.10;99.90;;;;;;4987646;28;20467;-72
2021/09/20 01:17:06;;;;;;;24.43;22.17;;;11.00;99.90;;;;;;4990998;28;20470;-72
2021/09/20 01:19:34;;;;;;;22.80;21.30;;;11.00;99.90;;;;;;4973772;28;20471;-72
2021/09/20 01:22:04;;;;;;;23.87;21.63;;;10.90;99.90;;;;;;4989713;28;20807;-71
2021/09/20 01:24:33;;;;;;;23.83;22.07;;;10.90;99.90;;;;;;4979639;28;20517;-72
2021/09/20 01:27:02;;;;;;;23.67;21.70;;;10.90;99.90;;;;;;4977564;28;20467;-71
2021/09/20 01:29:30;;;;;;;24.13;22.33;;;11.00;99.90;;;;;;4978859;28;20463;-72
2021/09/20 01:32:00;;;;;;;25.03;23.03;;;11.00;99.90;;;;;;4988612;28;20462;-73
2021/09/20 01:34:28;;;;;;;21.90;20.30;;;11.00;99.90;;;;;;4985329;28;20566;-71
2021/09/20 01:36:57;;;;;;;24.60;22.23;;;10.80;99.90;;;;;;4981777;28;20483;-72
2021/09/20 01:39:27;;;;;;;25.03;23.03;;;10.70;99.90;;;;;;4988493;28;20465;-72
2021/09/20 01:41:58;;;;;;;24.93;23.03;;;10.60;99.90;;;;;;4985360;28;20466;-72
2021/09/20 01:44:26;;;;;;;23.90;22.10;;;10.60;99.90;;;;;;4977508;28;20479;-71
2021/09/20 01:46:56;;;;;;;25.53;23.53;;;10.50;99.90;;;;;;4984797;28;20458;-72
2021/09/20 01:49:26;;;;;;;27.33;24.63;;;10.50;99.90;;;;;;4982368;28;20468;-72
2021/09/20 01:51:54;;;;;;;25.60;23.63;;;10.40;99.90;;;;;;4982762;28;20463;-71
2021/09/20 01:54:22;;;;;;;25.07;23.20;;;10.40;99.90;;;;;;4983295;28;20969;-71
2021/09/20 01:56:49;;;;;;;26.67;24.57;;;10.30;99.90;;;;;;4979608;28;20541;-72
2021/09/20 01:59:19;;;;;;;26.97;24.57;;;10.20;99.90;;;;;;4988457;28;20480;-73
2021/09/20 02:01:46;;;;;;;27.07;24.57;;;10.00;99.90;;;;;;4981497;28;20466;-72
2021/09/20 02:04:13;;;;;;;27.07;24.70;;;10.10;99.90;;;;;;4986513;28;20852;-71
2021/09/20 02:06:42;;;;;;;27.37;24.80;;;10.10;99.90;;;;;;4976786;28;20464;-71
2021/09/20 02:09:12;;;;;;;27.03;24.83;;;10.00;99.90;;;;;;4982265;28;20482;-71
2021/09/20 02:11:42;;;;;;;26.77;24.23;;;10.00;99.90;;;;;;4984812;28;20543;-72
2021/09/20 02:14:10;;;;;;;26.80;24.50;;;9.90;99.90;;;;;;4984124;28;20472;-72
2021/09/20 02:16:39;;;;;;;26.40;24.33;;;9.80;99.90;;;;;;4981808;28;20822;-72
2021/09/20 02:19:06;;;;;;;25.03;23.03;;;9.80;99.90;;;;;;4983570;28;20879;-72
2021/09/20 02:21:34;;;;;;;27.20;24.90;;;9.80;99.90;;;;;;4984877;28;20812;-72
2021/09/20 02:24:01;;;;;;;27.17;24.77;;;9.80;99.90;;;;;;4978469;28;20494;-71
2021/09/20 02:26:30;;;;;;;27.03;24.83;;;9.80;99.90;;;;;;4985107;28;20465;-72
2021/09/20 02:28:57;;;;;;;26.50;24.00;;;9.90;99.90;;;;;;4978643;28;20466;-72
2021/09/20 02:31:24;;;;;;;26.63;24.33;;;9.90;99.90;;;;;;4987006;28;20474;-72
2021/09/20 02:33:52;;;;;;;26.60;24.20;;;10.00;99.90;;;;;;4988539;28;20762;-71
2021/09/20 02:36:21;;;;;;;28.30;25.80;;;10.10;99.90;;;;;;4978433;28;21101;-71
2021/09/20 02:38:47;;;;;;;27.53;24.97;;;10.10;99.90;;;;;;4980960;28;20831;-70
2021/09/20 02:41:15;;;;;;;25.97;23.80;;;10.10;99.90;;;;;;4986426;28;20502;-71
2021/09/20 02:43:43;;;;;;;27.97;25.47;;;10.10;99.90;;;;;;4984779;28;20914;-72
2021/09/20 02:46:10;;;;;;;25.33;23.27;;;10.20;99.90;;;;;;4985694;28;20487;-71
2021/09/20 02:48:37;;;;;;;26.97;24.47;;;10.20;99.90;;;;;;4991995;28;20463;-72
2021/09/20 02:51:07;;;;;;;26.00;23.90;;;10.20;99.90;;;;;;4992749;28;20890;-71
2021/09/20 02:53:34;;;;;;;26.80;24.43;;;10.20;99.90;;;;;;4985075;28;20454;-72
2021/09/20 02:56:05;;;;;;;30.27;25.10;;;10.20;99.90;;;;;;4990660;28;20466;-72
2021/09/20 02:58:33;;;;;;;28.30;25.73;;;10.20;99.90;;;;;;4985148;28;20457;-71
2021/09/20 03:01:02;;;;;;;25.80;23.70;;;10.20;99.90;;;;;;4983943;28;20454;-71
2021/09/20 03:03:29;;;;;;;25.77;23.67;;;10.20;99.90;;;;;;4990598;28;20471;-71
2021/09/20 03:05:56;;;;;;;27.63;25.33;;;10.10;99.90;;;;;;4989461;28;20485;-72
2021/09/20 03:08:25;;;;;;;30.87;28.20;;;10.10;99.90;;;;;;4983393;28;20700;-71
2021/09/20 03:10:52;;;;;;;28.83;26.33;;;10.10;99.90;;;;;;4988061;28;20486;-72
2021/09/20 03:13:19;;;;;;;29.43;26.70;;;10.00;99.90;;;;;;4993205;28;20449;-72
2021/09/20 03:15:46;;;;;;;30.53;27.73;;;10.00;99.90;;;;;;4988261;28;20459;-72
2021/09/20 03:18:13;;;;;;;27.93;25.53;;;10.00;99.90;;;;;;4992255;28;20470;-71
2021/09/20 03:20:41;;;;;;;29.13;26.30;;;9.90;99.90;;;;;;4987758;28;20466;-72
2021/09/20 03:23:09;;;;;;;28.77;26.30;;;9.80;99.90;;;;;;4991202;28;20453;-72
2021/09/20 03:25:38;;;;;;;29.03;26.43;;;9.70;99.90;;;;;;4979079;28;20989;-71
2021/09/20 03:28:05;;;;;;;27.93;25.53;;;9.80;99.90;;;;;;4983037;28;20465;-71
2021/09/20 03:30:33;;;;;;;30.13;27.33;;;9.80;99.90;;;;;;4989255;28;20545;-72
2021/09/20 03:33:01;;;;;;;27.50;24.87;;;9.70;99.90;;;;;;4987663;28;20817;-72
2021/09/20 03:35:28;;;;;;;29.50;26.80;;;9.70;99.90;;;;;;4988801;28;20940;-72
2021/09/20 03:37:55;;;;;;;28.90;26.47;;;9.60;99.90;;;;;;4991449;28;20464;-72
2021/09/20 03:40:22;;;;;;;32.53;25.60;;;9.60;99.90;;;;;;4985872;28;20460;-72
2021/09/20 03:42:50;;;;;;;27.60;24.97;;;9.50;99.90;;;;;;4984822;28;20466;-71
2021/09/20 03:45:19;;;;;;;28.30;25.70;;;9.30;99.90;;;;;;4988657;28;20494;-71
2021/09/20 03:47:45;;;;;;;29.47;26.87;;;9.20;99.90;;;;;;4987425;28;20869;-71
2021/09/20 03:50:13;;;;;;;28.77;25.93;;;9.00;99.90;;;;;;4988743;28;20460;-71
2021/09/20 03:52:42;;;;;;;29.63;27.20;;;9.00;99.90;;;;;;4989645;28;20489;-72
2021/09/20 03:55:11;;;;;;;29.03;26.33;;;8.90;99.90;;;;;;4988294;28;20469;-71
2021/09/20 03:57:37;;;;;;;28.53;26.20;;;8.80;99.90;;;;;;4979308;28;20815;-71
2021/09/20 04:00:08;;;;;;;27.90;25.57;;;8.70;99.90;;;;;;4975792;28;20477;-71
2021/09/20 04:02:35;;;;;;;29.97;27.37;;;8.70;99.90;;;;;;4987655;28;20857;-71
2021/09/20 04:05:02;;;;;;;29.40;26.90;;;8.70;99.90;;;;;;4995454;28;20535;-71
2021/09/20 04:07:32;;;;;;;30.03;27.43;;;8.70;99.90;;;;;;4986193;28;20464;-71
2021/09/20 04:09:59;;;;;;;31.33;28.20;;;8.70;99.90;;;;;;4980111;28;20600;-71
2021/09/20 04:12:27;;;;;;;28.50;26.10;;;8.70;99.90;;;;;;4991316;28;21025;-72
2021/09/20 04:14:54;;;;;;;28.83;26.53;;;8.70;99.90;;;;;;4985579;28;20458;-70
2021/09/20 04:17:23;;;;;;;28.13;25.63;;;8.60;99.90;;;;;;4982281;28;20453;-71
2021/09/20 04:19:51;;;;;;;29.37;26.67;;;8.60;99.90;;;;;;4985444;28;20472;-72
2021/09/20 04:22:20;;;;;;;31.43;26.37;;;8.60;99.90;;;;;;4984817;28;20460;-72
2021/09/20 04:24:47;;;;;;;29.90;27.10;;;8.70;99.90;;;;;;4980114;28;20463;-70
2021/09/20 04:27:15;;;;;;;30.20;27.43;;;8.70;99.90;;;;;;4985112;28;20470;-72
2021/09/20 04:29:43;;;;;;;30.53;27.57;;;8.70;99.90;;;;;;4980173;28;20978;-73
2021/09/20 04:32:11;;;;;;;31.60;28.53;;;8.60;99.90;;;;;;4988356;28;20497;-72
2021/09/20 04:34:39;;;;;;;31.13;28.23;;;8.60;99.90;;;;;;4982157;28;21016;-71
2021/09/20 04:37:06;;;;;;;28.80;26.20;;;8.60;99.90;;;;;;4990410;28;20464;-71
2021/09/20 04:39:34;;;;;;;32.00;28.80;;;8.50;99.90;;;;;;4983340;28;20459;-73
2021/09/20 04:42:02;;;;;;;29.87;27.07;;;8.50;99.90;;;;;;4987017;28;20470;-73
2021/09/20 04:44:31;;;;;;;31.37;28.47;;;8.50;99.90;;;;;;4977075;28;20465;-71
2021/09/20 04:46:59;;;;;;;32.10;29.03;;;8.60;99.90;;;;;;4986921;28;20496;-71
2021/09/20 04:49:26;;;;;;;30.47;27.80;;;8.60;99.90;;;;;;4983735;28;20460;-72
2021/09/20 04:51:54;;;;;;;32.10;28.80;;;8.70;99.90;;;;;;4987960;28;20948;-71
2021/09/20 04:54:22;;;;;;;31.37;28.43;;;8.70;99.90;;;;;;4986090;28;20468;-72
2021/09/20 04:56:49;;;;;;;31.83;28.67;;;8.60;99.90;;;;;;4975919;28;20482;-72
2021/09/20 04:59:16;;;;;;;31.40;28.50;;;8.60;99.90;;;;;;4995054;28;20807;-71
2021/09/20 05:01:44;;;;;;;32.73;29.40;;;8.50;99.90;;;;;;4994022;28;20454;-71
2021/09/20 05:04:13;;;;;;;32.63;29.63;;;8.60;99.90;;;;;;4982979;28;20467;-71
2021/09/20 05:06:41;;;;;;;33.30;29.83;;;8.70;99.90;;;;;;4975929;28;20504;-72
2021/09/20 05:09:11;;;;;;;31.97;28.70;;;8.70;99.90;;;;;;4983133;28;20458;-71
2021/09/20 05:11:38;;;;;;;32.17;28.97;;;8.70;99.90;;;;;;4982699;28;20504;-71
2021/09/20 05:14:06;;;;;;;31.33;28.47;;;8.80;99.90;;;;;;4991135;28;20839;-71
2021/09/20 05:16:34;;;;;;;32.00;28.83;;;8.80;99.90;;;;;;4987677;28;20474;-72
2021/09/20 05:19:03;;;;;;;31.00;27.73;;;8.80;99.90;;;;;;4981597;28;20462;-71
2021/09/20 05:21:30;;;;;;;30.13;27.27;;;8.80;99.90;;;;;;4988186;28;20462;-72
2021/09/20 05:23:57;;;;;;;31.23;27.10;;;8.80;99.90;;;;;;4978895;28;20472;-71
2021/09/20 05:26:26;;;;;;;30.57;27.67;;;8.90;99.90;;;;;;4987579;28;20500;-71
2021/09/20 05:28:53;;;;;;;31.60;28.57;;;8.90;99.90;;;;;;4986247;28;20475;-71
2021/09/20 05:31:20;;;;;;;31.77;28.83;;;8.90;99.90;;;;;;4994774;28;20480;-71
2021/09/20 05:33:47;;;;;;;33.10;30.00;;;8.90;99.90;;;;;;4981093;28;20465;-71
2021/09/20 05:36:15;;;;;;;32.37;29.00;;;8.90;99.90;;;;;;4981160;28;20963;-71
2021/09/20 05:38:43;;;;;;;31.47;28.37;;;8.90;99.90;;;;;;4984613;28;20823;-71
2021/09/20 05:41:10;;;;;;;31.30;28.40;;;9.00;99.90;;;;;;4990096;28;20453;-71
2021/09/20 05:43:39;;;;;;;30.70;27.83;;;9.00;99.90;;;;;;4982679;28;20473;-71
2021/09/20 05:46:06;;;;;;;31.13;28.33;;;9.10;99.90;;;;;;4981344;28;20486;-71
2021/09/20 05:48:33;;;;;;;32.83;29.43;;;9.10;99.90;;;;;;4979724;28;20565;-70
2021/09/20 05:51:39;;;;;;;29.13;26.40;;;9.20;99.90;;;;;;4973236;28;20473;-72
2021/09/20 05:54:05;;;;;;;29.70;26.80;;;9.30;99.90;;;;;;4979831;28;20452;-71
2021/09/20 05:56:33;;;;;;;31.03;27.93;;;9.40;99.90;;;;;;4984778;28;20459;-70
2021/09/20 05:59:02;;;;;;;31.77;28.70;;;9.40;99.90;;;;;;4980193;28;20966;-70
2021/09/20 06:01:30;;;;;;;30.43;27.60;;;9.50;99.90;;;;;;4991517;28;20550;-71
2021/09/20 06:03:57;;;;;;;31.33;28.30;;;9.60;99.90;;;;;;4985891;28;20452;-71
2021/09/20 06:06:24;;;;;;;31.13;28.20;;;9.60;99.90;;;;;;4982462;28;20498;-71
2021/09/20 06:08:51;;;;;;;31.90;28.83;;;9.70;99.90;;;;;;4982534;28;20463;-70
2021/09/20 06:11:20;;;;;;;29.73;26.90;;;9.80;99.90;;;;;;4986738;28;20489;-71
2021/09/20 06:13:46;;;;;;;29.93;27.10;;;9.90;99.90;;;;;;4978100;28;20462;-72
2021/09/20 06:16:16;;;;;;;30.20;27.20;;;10.00;99.90;;;;;;4991154;28;20452;-71
2021/09/20 06:18:43;;;;;;;29.77;27.27;;;10.00;99.90;;;;;;4983173;28;20459;-72
2021/09/20 06:21:10;;;;;;;32.53;27.53;;;10.10;99.90;;;;;;4983639;28;20469;-72
2021/09/20 06:23:37;;;;;;;30.60;27.83;;;10.20;99.90;;;;;;4980173;28;20468;-70
2021/09/20 06:26:04;;;;;;;31.27;28.07;;;10.20;99.90;;;;;;4987496;28;20493;-72
2021/09/20 06:28:31;;;;;;;30.27;27.27;;;10.30;99.90;;;;;;4982748;28;20463;-71
2021/09/20 06:31:02;;;;;;;30.90;27.93;;;10.40;99.90;;;;;;4985191;28;20458;-71
2021/09/20 06:33:31;;;;;;;32.67;29.60;;;10.50;99.90;;;;;;4977110;28;20470;-71
2021/09/20 06:35:58;;;;;;;31.83;28.73;;;10.60;99.90;;;;;;4979820;28;20954;-71
2021/09/20 06:38:25;;;;;;;34.10;31.07;;;10.70;99.90;;;;;;4981011;28;20457;-70
2021/09/20 06:40:54;;;;;;;39.63;30.33;;;10.80;99.90;;;;;;4978518;28;20461;-70
2021/09/20 06:43:21;;;;;;;32.27;29.23;;;10.90;99.90;;;;;;4980697;28;20466;-70
2021/09/20 06:45:48;;;;;;;33.30;29.53;;;11.10;99.90;;;;;;4984621;28;20573;-71
2021/09/20 06:48:16;;;;;;;33.57;30.40;;;11.10;99.90;;;;;;4979985;28;20498;-72
2021/09/20 06:50:45;;;;;;;32.93;29.80;;;11.20;99.90;;;;;;4979164;28;20538;-71
2021/09/20 06:53:14;;;;;;;33.53;30.40;;;11.30;99.90;;;;;;4982272;28;20471;-71
2021/09/20 06:55:41;;;;;;;31.60;28.93;;;11.40;99.90;;;;;;4984634;28;20833;-71
2021/09/20 06:58:07;;;;;;;33.13;30.33;;;11.50;99.90;;;;;;4983836;28;20969;-71
2021/09/20 07:00:34;;;;;;;33.93;30.80;;;11.60;99.90;;;;;;4986056;28;20461;-71
2021/09/20 07:03:01;;;;;;;34.03;30.60;;;11.60;99.90;;;;;;4979097;28;20475;-72
2021/09/20 07:05:28;;;;;;;31.30;28.63;;;11.60;99.90;;;;;;4985246;28;20458;-70
2021/09/20 07:08:00;;;;;;;32.47;29.63;;;11.60;99.90;;;;;;4978860;28;20464;-71
2021/09/20 07:10:28;;;;;;;31.87;29.17;;;11.80;99.90;;;;;;4982096;28;20493;-71
2021/09/20 07:12:55;;;;;;;31.87;29.17;;;12.00;99.90;;;;;;4994573;28;20468;-71
2021/09/20 07:15:22;;;;;;;31.50;28.80;;;12.00;99.90;;;;;;4982645;28;20466;-72
2021/09/20 07:17:49;;;;;;;31.13;28.10;;;12.10;99.90;;;;;;4980315;28;20467;-72
2021/09/20 07:20:17;;;;;;;31.13;28.63;;;12.20;99.90;;;;;;4981509;28;20469;-72
2021/09/20 07:22:44;;;;;;;30.83;28.20;;;12.30;99.90;;;;;;4975401;28;20973;-72
2021/09/20 07:25:13;;;;;;;31.07;28.47;;;12.30;99.90;;;;;;4978902;28;20992;-71
2021/09/20 07:27:42;;;;;;;28.93;26.63;;;12.30;99.90;;;;;;4989673;28;20509;-73
2021/09/20 07:30:14;;;;;;;30.13;27.53;;;12.40;99.90;;;;;;4983799;28;20438;-72
2021/09/20 07:32:42;;;;;;;26.50;24.30;;;12.50;99.90;;;;;;4980055;28;20494;-71
2021/09/20 07:35:11;;;;;;;28.63;25.80;;;12.50;99.90;;;;;;4981151;28;21059;-71
2021/09/20 07:37:39;;;;;;;28.43;26.03;;;12.60;99.90;;;;;;4978141;28;20459;-71
2021/09/20 07:40:07;;;;;;;28.90;26.27;;;12.70;99.90;;;;;;4981144;28;20478;-71
2021/09/20 07:42:35;;;;;;;27.33;25.10;;;12.90;99.90;;;;;;4977985;28;20458;-71
2021/09/20 07:45:02;;;;;;;28.27;25.63;;;12.90;99.90;;;;;;4976819;28;20459;-72
2021/09/20 07:47:30;;;;;;;28.80;26.17;;;13.10;99.90;;;;;;4972866;28;20494;-70
2021/09/20 07:49:57;;;;;;;26.47;24.37;;;13.00;99.90;;;;;;4973864;28;20470;-70
2021/09/20 07:52:24;;;;;;;27.17;24.97;;;13.10;99.90;;;;;;4985759;28;20466;-70
2021/09/20 07:54:52;;;;;;;27.53;25.33;;;13.40;99.90;;;;;;4980221;28;20455;-71
2021/09/20 07:57:19;;;;;;;26.83;24.60;;;13.60;99.90;;;;;;4988373;28;20973;-70
2021/09/20 07:59:47;;;;;;;26.70;24.50;;;13.80;99.90;;;;;;4973542;28;20472;-70
2021/09/20 08:02:14;;;;;;;25.93;23.83;;;14.00;99.90;;;;;;4980863;28;20464;-72
2021/09/20 08:04:41;;;;;;;26.63;24.23;;;14.00;99.90;;;;;;4976030;28;20470;-71
2021/09/20 08:07:09;;;;;;;27.03;24.20;;;13.90;99.90;;;;;;4969288;28;20499;-70
2021/09/20 08:09:36;;;;;;;25.60;23.60;;;14.00;99.90;;;;;;4975813;28;20458;-71
2021/09/20 08:12:03;;;;;;;24.87;22.50;;;13.90;99.90;;;;;;4980005;28;20806;-72
2021/09/20 08:14:30;;;;;;;24.57;22.63;;;13.80;99.90;;;;;;4970795;28;20459;-73
2021/09/20 08:16:59;;;;;;;24.67;22.67;;;14.10;99.90;;;;;;4978216;28;20469;-70
2021/09/20 08:19:26;;;;;;;24.97;22.77;;;14.40;99.90;;;;;;4972037;28;20485;-70
2021/09/20 08:21:53;;;;;;;25.83;23.40;;;14.60;99.90;;;;;;4987652;28;20457;-70
2021/09/20 08:24:21;;;;;;;22.83;21.10;;;14.70;99.90;;;;;;4985063;28;20699;-71
2021/09/20 08:26:48;;;;;;;23.33;21.53;;;14.80;99.90;;;;;;4978440;28;20554;-70
2021/09/20 08:29:15;;;;;;;23.63;21.33;;;14.90;99.90;;;;;;4980712;28;20470;-71
2021/09/20 08:31:44;;;;;;;23.80;21.80;;;15.20;99.90;;;;;;4977282;28;20455;-72
2021/09/20 08:34:12;;;;;;;24.80;22.90;;;15.20;99.90;;;;;;4988261;28;20871;-71
2021/09/20 08:36:39;;;;;;;24.13;21.70;;;15.30;99.90;;;;;;4983392;28;20465;-72
2021/09/20 08:39:06;;;;;;;22.20;20.50;;;15.40;99.90;;;;;;4982843;28;20466;-71
2021/09/20 08:41:33;;;;;;;24.23;22.13;;;15.40;99.90;;;;;;4976444;28;20464;-72
2021/09/20 08:44:01;;;;;;;23.37;21.47;;;15.80;99.90;;;;;;4977226;28;20984;-70
2021/09/20 08:46:29;;;;;;;27.13;22.00;;;16.00;99.90;;;;;;4975175;28;20490;-71
2021/09/20 08:48:56;;;;;;;23.40;21.70;;;16.00;99.90;;;;;;4979006;28;20461;-71
2021/09/20 08:51:24;;;;;;;23.00;21.23;;;16.30;99.90;;;;;;4979045;28;20459;-71
2021/09/20 08:53:51;;;;;;;22.33;20.73;;;16.40;99.90;;;;;;4974075;28;20468;-72
2021/09/20 08:56:19;;;;;;;22.80;20.80;;;16.50;99.90;;;;;;4971775;28;20468;-71
2021/09/20 08:58:46;;;;;;;22.73;21.03;;;16.60;99.90;;;;;;4971218;28;20510;-72
2021/09/20 09:01:14;;;;;;;21.90;20.10;;;16.80;99.90;;;;;;4982992;28;20486;-70
2021/09/20 09:03:41;;;;;;;22.33;20.43;;;17.10;99.90;;;;;;4976766;28;20845;-71
2021/09/20 09:06:08;;;;;;;22.57;20.90;;;17.40;99.90;;;;;;4971311;28;20475;-73
2021/09/20 09:08:38;;;;;;;21.77;20.27;;;17.60;99.90;;;;;;4985641;28;20712;-71
2021/09/20 09:11:08;;;;;;;21.03;19.63;;;17.40;99.90;;;;;;4973048;28;20486;-70
2021/09/20 09:13:37;;;;;;;22.23;20.63;;;17.50;99.90;;;;;;4974849;28;20490;-70
2021/09/20 09:16:15;;;;;;;21.23;19.73;;;17.40;99.90;;;;;;4982646;28;20559;-71
2021/09/20 09:19:02;;;;;;;20.53;19.17;;;17.70;99.90;;;;;;4985232;28;20471;-73
2021/09/20 09:21:31;;;;;;;22.60;20.87;;;17.70;99.90;;;;;;4977553;28;20949;-71
2021/09/20 09:24:05;;;;;;;21.60;20.03;;;17.70;99.90;;;;;;4978045;28;20515;-71
2021/09/20 09:26:32;;;;;;;23.20;21.20;;;17.90;99.90;;;;;;4966962;28;20839;-70
2021/09/20 09:29:13;;;;;;;21.00;19.60;;;18.10;99.90;;;;;;4973476;28;20891;-71
2021/09/20 09:31:42;;;;;;;23.17;21.27;;;18.90;99.90;;;;;;4978346;28;20545;-70
2021/09/20 09:34:17;;;;;;;21.37;19.97;;;19.90;99.90;;;;;;4971036;28;20598;-70
2021/09/20 09:36:45;;;;;;;22.23;20.43;;;19.60;99.90;;;;;;4975066;28;20643;-71
2021/09/20 09:39:13;;;;;;;20.80;19.30;;;20.20;99.90;;;;;;4983255;28;20465;-72
2021/09/20 09:41:43;;;;;;;20.50;19.10;;;20.40;99.90;;;;;;4974414;28;20834;-73
2021/09/20 09:44:13;;;;;;;21.03;19.50;;;20.30;99.90;;;;;;4984936;28;21020;-73
2021/09/20 09:46:42;;;;;;;21.07;19.57;;;20.30;99.90;;;;;;4977873;28;20498;-73
2021/09/20 09:49:13;;;;;;;22.53;20.57;;;20.20;99.90;;;;;;4988617;28;20453;-70
2021/09/20 09:52:01;;;;;;;21.63;20.23;;;19.70;99.90;;;;;;4973278;28;20471;-70
2021/09/20 09:54:32;;;;;;;20.47;19.03;;;20.10;99.90;;;;;;4969836;28;20821;-72
2021/09/20 09:57:14;;;;;;;20.57;18.80;;;20.30;99.90;;;;;;4979407;28;20477;-71
2021/09/20 09:59:42;;;;;;;20.60;19.30;;;20.70;99.90;;;;;;4978508;28;20540;-69
2021/09/20 10:02:22;;;;;;;21.17;19.67;;;20.50;99.90;;;;;;4979436;28;20818;-70
2021/09/20 10:04:52;;;;;;;20.93;19.50;;;19.70;99.90;;;;;;4976230;28;20471;-72
2021/09/20 10:07:28;;;;;;;21.10;19.60;;;19.60;99.90;;;;;;4978182;28;20488;-72
2021/09/20 10:09:58;;;;;;;21.00;19.40;;;20.00;99.90;;;;;;4978549;28;20968;-72
2021/09/20 10:12:27;;;;;;;20.40;18.90;;;20.00;99.90;;;;;;4980752;28;20857;-72
2021/09/20 10:14:56;;;;;;;20.77;19.47;;;20.20;99.90;;;;;;4978512;28;20454;-73
2021/09/20 10:17:24;;;;;;;21.13;19.63;;;20.00;99.90;;;;;;4980238;28;20460;-73
2021/09/20 10:19:51;;;;;;;19.87;18.57;;;20.10;99.90;;;;;;4979354;28;20461;-73
2021/09/20 10:22:20;;;;;;;20.60;19.00;;;19.90;99.90;;;;;;4987790;28;20460;-72
2021/09/20 10:24:54;;;;;;;19.70;18.30;;;20.00;99.90;;;;;;4976558;28;20466;-71
2021/09/20 10:27:24;;;;;;;20.37;19.03;;;20.30;99.90;;;;;;4976166;28;21006;-71
2021/09/20 10:29:55;;;;;;;19.70;18.30;;;20.40;99.90;;;;;;4984428;28;20463;-70
2021/09/20 10:32:26;;;;;;;19.90;18.60;;;20.80;99.90;;;;;;4986978;28;20463;-70
2021/09/20 10:35:13;;;;;;;20.23;18.90;;;21.80;99.90;;;;;;4982014;28;20493;-69
2021/09/20 10:37:41;;;;;;;20.37;18.77;;;21.30;99.90;;;;;;4984338;28;21210;-72
2021/09/20 10:40:12;;;;;;;20.20;18.60;;;21.20;99.90;;;;;;4985114;28;21134;-71
2021/09/20 10:43:00;;;;;;;19.10;17.97;;;20.90;99.90;;;;;;4978700;28;20462;-70
2021/09/20 10:45:49;;;;;;;19.47;18.17;;;21.10;99.90;;;;;;4975231;28;20537;-70
2021/09/20 10:48:32;;;;;;;19.33;17.97;;;20.90;99.90;;;;;;4979665;28;20490;-71
2021/09/20 10:51:02;;;;;;;19.93;18.67;;;20.70;99.90;;;;;;4970990;28;20455;-71
2021/09/20 10:53:34;;;;;;;20.00;18.70;;;21.10;99.90;;;;;;4971177;28;20847;-70
2021/09/20 10:56:17;;;;;;;18.77;17.67;;;21.90;99.90;;;;;;4983826;28;20872;-71
2021/09/20 10:59:16;;;;;;;19.00;17.90;;;23.20;99.90;;;;;;4978654;28;20462;-73
2021/09/20 11:01:44;;;;;;;18.33;17.33;;;23.10;99.90;;;;;;4973365;28;21293;-70
2021/09/20 11:04:16;;;;;;;19.30;17.43;;;23.40;99.90;;;;;;4979938;28;20928;-71
2021/09/20 11:06:44;;;;;;;17.80;16.70;;;23.00;99.90;;;;;;4979004;28;20814;-72
2021/09/20 11:09:43;;;;;;;17.87;16.73;;;22.80;99.90;;;;;;4976798;28;20613;-70
2021/09/20 11:12:13;;;;;;;17.83;16.77;;;22.80;99.90;;;;;;4972535;28;20575;-72
2021/09/20 11:14:44;;;;;;;19.20;18.00;;;23.40;99.90;;;;;;4979651;28;20474;-71
2021/09/20 11:17:41;;;;;;;18.70;17.60;;;23.10;99.00;;;;;;4985145;28;20455;-71
2021/09/20 11:20:35;;;;;;;18.80;17.63;;;22.20;99.80;;;;;;4986122;28;20469;-70
2021/09/20 11:23:23;;;;;;;18.30;17.20;;;21.70;99.90;;;;;;4982709;28;20956;-71
2021/09/20 11:26:13;;;;;;;17.60;16.60;;;21.70;99.90;;;;;;4986247;28;20468;-70
2021/09/20 11:28:42;;;;;;;18.57;17.40;;;21.60;99.90;;;;;;4978274;28;21024;-71
2021/09/20 11:31:11;;;;;;;18.10;17.10;;;21.40;99.90;;;;;;4987824;28;20462;-73
2021/09/20 11:33:41;;;;;;;18.60;17.40;;;21.70;99.90;;;;;;4983968;28;20465;-71
2021/09/20 11:36:28;;;;;;;17.67;16.60;;;21.90;99.90;;;;;;4983806;28;20549;-71
2021/09/20 11:39:17;;;;;;;18.60;17.43;;;21.80;99.90;;;;;;4978513;28;20470;-70
2021/09/20 11:41:46;;;;;;;20.43;18.57;;;21.80;99.90;;;;;;4977564;28;20459;-71
2021/09/20 11:44:15;;;;;;;18.00;17.00;;;21.60;99.90;;;;;;4972417;28;20462;-73
2021/09/20 11:46:46;;;;;;;18.47;17.37;;;21.90;99.90;;;;;;4981822;28;20492;-71
2021/09/20 11:49:16;;;;;;;17.13;16.13;;;21.70;99.90;;;;;;4982276;28;20487;-71
2021/09/20 11:51:44;;;;;;;17.90;16.60;;;21.90;99.90;;;;;;4983100;28;20513;-72
2021/09/20 11:54:28;;;;;;;18.50;17.47;;;21.80;99.90;;;;;;4985467;28;20533;-71
2021/09/20 11:56:55;;;;;;;18.37;17.27;;;22.00;99.90;;;;;;4980043;28;20821;-73
2021/09/20 11:59:33;;;;;;;17.17;16.07;;;22.30;99.90;;;;;;4977161;28;20466;-70
2021/09/20 12:02:01;;;;;;;17.43;16.53;;;22.30;99.90;;;;;;4980319;28;20455;-71
2021/09/20 12:04:47;;;;;;;17.30;16.20;;;21.90;99.60;;;;;;4990965;28;20983;-71
2021/09/20 12:07:29;;;;;;;18.60;17.30;;;21.20;99.90;;;;;;4978512;28;20463;-70
2021/09/20 12:09:57;;;;;;;18.27;17.20;;;21.00;99.90;;;;;;4986901;28;20950;-72
2021/09/20 12:12:29;;;;;;;17.13;16.13;;;21.40;99.90;;;;;;4971819;28;20464;-73
2021/09/20 12:14:59;;;;;;;17.33;16.30;;;21.40;99.90;;;;;;4984815;28;20870;-71
2021/09/20 12:17:45;;;;;;;17.50;16.40;;;21.60;99.90;;;;;;4980882;28;20999;-71
2021/09/20 12:20:14;;;;;;;18.23;17.13;;;21.30;99.50;;;;;;4976411;28;20815;-73
2021/09/20 12:22:42;;;;;;;18.10;17.00;;;21.50;99.90;;;;;;4988449;28;20465;-73
2021/09/20 12:25:22;;;;;;;18.10;16.90;;;22.20;99.80;;;;;;4984833;28;20559;-70
2021/09/20 12:27:49;;;;;;;17.30;16.30;;;22.10;98.80;;;;;;4975330;28;20489;-73
2021/09/20 12:30:17;;;;;;;17.40;16.30;;;21.80;99.10;;;;;;4978262;28;20455;-72
2021/09/20 12:32:46;;;;;;;16.90;15.90;;;21.80;99.90;;;;;;4980815;28;20578;-74
2021/09/20 12:35:14;;;;;;;16.40;15.40;;;22.00;98.80;;;;;;4976443;28;20496;-73
2021/09/20 12:37:41;;;;;;;17.20;16.20;;;22.40;99.90;;;;;;4979744;28;20830;-72
2021/09/20 12:40:19;;;;;;;17.70;16.70;;;22.90;98.70;;;;;;4977347;28;20462;-71
2021/09/20 12:43:07;;;;;;;17.97;16.80;;;22.50;97.70;;;;;;4986905;28;20455;-72